createdAt,value
2018-10-05T00:00:54.648Z,79.90
2018-10-05T00:03:23.691Z,79.70
2018-10-05T00:05:52.672Z,79.90
2018-10-05T00:08:21.474Z,79.70
2018-10-05T00:10:50.176Z,79.50
2018-10-05T00:13:18.984Z,79.30
2018-10-05T00:15:47.920Z,80.20
2018-10-05T00:18:16.713Z,80.60
2018-10-05T00:20:45.706Z,80.30
2018-10-05T00:23:14.477Z,80.30
2018-10-05T00:25:43.507Z,81.30
2018-10-05T00:28:12.530Z,81.10
2018-10-05T00:30:41.028Z,80.90
2018-10-05T00:33:09.796Z,81.10
2018-10-05T00:35:38.532Z,81.50
2018-10-05T00:38:07.308Z,80.70
2018-10-05T00:40:38.225Z,81.00
2018-10-05T00:43:06.875Z,81.40
2018-10-05T00:45:35.734Z,81.90
2018-10-05T00:48:04.548Z,81.50
2018-10-05T00:50:33.662Z,81.50
2018-10-05T00:53:02.600Z,81.40
2018-10-05T00:55:31.336Z,81.40
2018-10-05T00:58:00.190Z,81.60
2018-10-05T01:00:28.984Z,81.90
2018-10-05T01:02:57.741Z,81.70
2018-10-05T01:05:26.295Z,81.80
2018-10-05T01:07:55.293Z,80.90
2018-10-05T01:10:24.229Z,81.10
2018-10-05T01:12:52.934Z,81.40
2018-10-05T01:15:21.681Z,80.70
2018-10-05T01:17:50.632Z,80.90
2018-10-05T01:20:19.632Z,80.60
2018-10-05T01:22:48.258Z,80.70
2018-10-05T01:25:18.317Z,80.40
2018-10-05T01:27:46.926Z,80.20
2018-10-05T01:30:15.963Z,80.30
2018-10-05T01:32:45.276Z,80.70
2018-10-05T01:35:14.432Z,81.00
2018-10-05T01:37:43.001Z,80.60
2018-10-05T01:40:11.698Z,80.90
2018-10-05T01:42:40.370Z,80.90
2018-10-05T01:45:09.233Z,81.20
2018-10-05T01:47:38.464Z,81.70
2018-10-05T01:50:07.209Z,81.20
2018-10-05T01:52:35.857Z,80.80
2018-10-05T01:55:04.748Z,81.40
2018-10-05T01:57:33.416Z,80.70
2018-10-05T02:00:02.179Z,80.50
2018-10-05T02:02:31.040Z,80.50
2018-10-05T02:04:59.785Z,80.40
2018-10-05T02:07:28.554Z,80.60
2018-10-05T02:09:57.128Z,80.70
2018-10-05T02:12:25.855Z,80.50
2018-10-05T02:14:54.590Z,80.40
2018-10-05T02:17:23.194Z,80.30
2018-10-05T02:19:51.964Z,80.50
2018-10-05T02:22:20.800Z,80.30
2018-10-05T02:24:49.602Z,80.20
2018-10-05T02:27:18.173Z,80.70
2018-10-05T02:29:46.925Z,80.70
2018-10-05T02:32:15.570Z,81.30
2018-10-05T02:34:44.750Z,81.10
2018-10-05T02:37:13.453Z,80.80
2018-10-05T02:39:42.499Z,81.30
2018-10-05T02:42:11.455Z,81.30
2018-10-05T02:44:41.408Z,81.70
2018-10-05T02:47:10.105Z,81.30
2018-10-05T02:49:39.001Z,81.40
2018-10-05T02:52:07.778Z,81.30
2018-10-05T02:54:36.504Z,80.80
2018-10-05T02:57:05.592Z,80.70
2018-10-05T02:59:34.461Z,80.50
2018-10-05T03:02:18.214Z,80.70
2018-10-05T03:04:47.086Z,80.50
2018-10-05T03:07:15.790Z,80.40
2018-10-05T03:09:44.870Z,80.50
2018-10-05T03:12:13.675Z,80.80
2018-10-05T03:14:42.519Z,80.60
2018-10-05T03:17:12.623Z,80.50
2018-10-05T03:19:41.206Z,80.50
2018-10-05T03:22:09.961Z,80.50
2018-10-05T03:24:38.534Z,80.40
2018-10-05T03:27:08.368Z,80.40
2018-10-05T03:29:37.097Z,80.50
2018-10-05T03:32:05.726Z,80.80
2018-10-05T03:34:34.470Z,81.20
2018-10-05T03:37:03.135Z,80.80
2018-10-05T03:39:31.848Z,80.60
2018-10-05T03:42:00.665Z,80.60
2018-10-05T03:44:29.366Z,80.50
2018-10-05T03:46:58.108Z,80.40
2018-10-05T03:49:27.956Z,80.60
2018-10-05T03:51:56.882Z,80.90
2018-10-05T03:54:27.060Z,81.30
2018-10-05T03:56:56.173Z,81.20
2018-10-05T03:59:25.215Z,80.90
2018-10-05T04:01:54.990Z,80.80
2018-10-05T04:04:23.731Z,80.80
2018-10-05T04:06:52.447Z,80.70
2018-10-05T04:09:21.781Z,80.70
2018-10-05T04:11:50.651Z,80.70
2018-10-05T04:14:19.682Z,80.80
2018-10-05T04:16:48.576Z,80.70
2018-10-05T04:19:17.549Z,80.70
2018-10-05T04:21:46.647Z,80.70
2018-10-05T04:24:16.757Z,80.70
2018-10-05T04:26:45.477Z,80.70
2018-10-05T04:29:14.140Z,80.70
2018-10-05T04:31:42.771Z,80.60
2018-10-05T04:34:11.495Z,80.70
2018-10-05T04:36:40.204Z,80.90
2018-10-05T04:39:09.743Z,80.70
2018-10-05T04:41:38.519Z,80.60
2018-10-05T04:44:07.259Z,80.50
2018-10-05T04:46:36.095Z,80.60
2018-10-05T04:49:04.833Z,80.60
2018-10-05T04:51:33.816Z,80.70
2018-10-05T04:54:02.630Z,80.80
2018-10-05T04:56:32.338Z,80.70
2018-10-05T04:59:01.258Z,80.80
2018-10-05T05:01:30.073Z,80.80
2018-10-05T05:03:59.116Z,81.10
2018-10-05T05:06:28.005Z,81.10
2018-10-05T05:08:56.586Z,81.10
2018-10-05T05:11:26.461Z,81.60
2018-10-05T05:13:55.182Z,81.70
2018-10-05T05:16:23.982Z,82.20
2018-10-05T05:18:52.684Z,81.80
2018-10-05T05:21:21.351Z,82.60
2018-10-05T05:23:52.068Z,83.50
2018-10-05T05:26:20.874Z,83.10
2018-10-05T05:28:49.526Z,83.20
2018-10-05T05:31:18.263Z,84.00
2018-10-05T05:33:47.023Z,83.50
2018-10-05T05:36:15.655Z,84.40
2018-10-05T05:38:44.553Z,83.20
2018-10-05T05:41:13.266Z,83.30
2018-10-05T05:43:42.127Z,82.80
2018-10-05T05:46:13.468Z,82.50
2018-10-05T05:48:43.542Z,82.30
2018-10-05T05:51:12.421Z,82.40
2018-10-05T05:53:42.249Z,83.30
2018-10-05T05:56:11.595Z,83.60
2018-10-05T05:58:40.484Z,83.70
2018-10-05T06:01:10.397Z,83.10
2018-10-05T06:03:39.437Z,83.00
2018-10-05T06:06:08.082Z,82.90
2018-10-05T06:08:37.026Z,82.30
2018-10-05T06:11:05.796Z,82.30
2018-10-05T06:13:34.632Z,82.20
2018-10-05T06:16:03.473Z,82.00
2018-10-05T06:18:33.441Z,82.50
2018-10-05T06:21:05.855Z,82.80
2018-10-05T06:23:34.681Z,82.60
2018-10-05T06:28:34.939Z,82.80
2018-10-05T06:31:04.093Z,83.30
2018-10-05T06:33:32.685Z,82.90
2018-10-05T06:36:01.389Z,83.20
2018-10-05T06:38:30.653Z,84.10
2018-10-05T06:40:59.821Z,83.90
2018-10-05T06:43:28.591Z,83.90
2018-10-05T06:45:57.289Z,83.50
2018-10-05T06:48:26.910Z,83.50
2018-10-05T06:50:55.239Z,83.30
2018-10-05T06:53:40.791Z,83.00
2018-10-05T06:56:12.276Z,83.60
2018-10-05T06:58:40.921Z,83.10
2018-10-05T07:01:10.125Z,82.80
2018-10-05T07:03:39.029Z,83.20
2018-10-05T07:06:08.133Z,83.00
2018-10-05T07:08:37.426Z,83.60
2018-10-05T07:11:07.391Z,83.40
2018-10-05T07:13:36.353Z,84.10
2018-10-05T07:16:05.268Z,83.20
2018-10-05T07:18:34.029Z,82.90
2018-10-05T07:21:02.614Z,82.50
2018-10-05T07:23:32.112Z,82.30
2018-10-05T07:26:01.307Z,82.10
2018-10-05T07:28:30.268Z,81.80
2018-10-05T07:30:59.199Z,81.90
2018-10-05T07:33:27.616Z,81.70
2018-10-05T07:35:56.229Z,81.40
2018-10-05T07:38:24.928Z,81.00
2018-10-05T07:40:53.741Z,81.00
2018-10-05T07:43:22.371Z,80.80
2018-10-05T07:45:50.987Z,80.80
2018-10-05T07:48:19.820Z,80.30
2018-10-05T07:50:48.542Z,80.00
2018-10-05T07:53:17.217Z,79.80
2018-10-05T07:55:45.886Z,79.70
2018-10-05T07:58:14.606Z,79.10
2018-10-05T08:00:43.251Z,78.90
2018-10-05T08:03:12.178Z,78.80
2018-10-05T08:05:40.897Z,78.40
2018-10-05T08:08:09.464Z,78.40
2018-10-05T08:10:38.274Z,77.20
2018-10-05T08:13:07.235Z,76.40
2018-10-05T08:15:37.063Z,76.80
2018-10-05T08:18:05.831Z,76.70
2018-10-05T08:20:34.478Z,76.60
2018-10-05T08:23:03.238Z,75.90
2018-10-05T08:25:31.958Z,74.90
2018-10-05T08:28:00.585Z,75.00
2018-10-05T08:30:28.999Z,75.90
2018-10-05T08:32:57.414Z,73.60
2018-10-05T08:35:25.904Z,73.70
2018-10-05T08:37:56.025Z,71.90
2018-10-05T08:40:25.383Z,72.60
2018-10-05T08:42:53.769Z,71.70
2018-10-05T08:45:22.305Z,71.50
2018-10-05T08:47:50.821Z,73.30
2018-10-05T08:50:19.477Z,71.50
2018-10-05T08:52:48.071Z,70.80
2018-10-05T08:55:16.552Z,71.70
2018-10-05T08:57:44.975Z,71.40
2018-10-05T09:00:13.534Z,71.00
2018-10-05T09:02:42.058Z,73.70
2018-10-05T09:05:10.967Z,73.10
2018-10-05T09:07:39.693Z,70.30
2018-10-05T09:10:08.483Z,69.00
2018-10-05T09:12:37.246Z,68.00
2018-10-05T09:15:05.861Z,68.80
2018-10-05T09:17:34.369Z,68.00
2018-10-05T09:20:03.110Z,68.40
2018-10-05T09:22:31.725Z,66.10
2018-10-05T09:25:31.205Z,64.70
2018-10-05T09:27:59.880Z,67.30
2018-10-05T09:30:28.578Z,65.00
2018-10-05T09:32:57.052Z,64.10
2018-10-05T09:35:25.511Z,64.50
2018-10-05T09:37:54.000Z,63.40
2018-10-05T09:40:22.518Z,62.00
2018-10-05T09:42:51.033Z,61.30
2018-10-05T09:45:19.763Z,61.20
2018-10-05T09:47:48.385Z,61.00
2018-10-05T09:50:17.088Z,61.60
2018-10-05T09:52:45.829Z,59.40
2018-10-05T09:55:14.407Z,58.20
2018-10-05T09:57:43.098Z,57.70
2018-10-05T10:00:16.900Z,55.90
2018-10-05T10:02:52.481Z,57.30
2018-10-05T10:05:22.245Z,58.40
2018-10-05T10:07:50.997Z,61.20
2018-10-05T10:10:19.933Z,60.60
2018-10-05T10:12:48.821Z,58.00
2018-10-05T10:15:17.989Z,62.00
2018-10-05T10:17:47.106Z,63.00
2018-10-05T10:20:15.913Z,62.90
2018-10-05T10:22:44.743Z,61.70
2018-10-05T10:25:13.639Z,59.00
2018-10-05T10:27:42.178Z,59.80
2018-10-05T10:30:11.137Z,58.20
2018-10-05T10:32:39.746Z,53.70
2018-10-05T10:35:08.364Z,58.10
2018-10-05T10:37:37.448Z,53.90
2018-10-05T10:40:06.173Z,52.90
2018-10-05T10:42:34.976Z,51.30
2018-10-05T10:45:03.414Z,48.70
2018-10-05T10:47:32.182Z,46.50
2018-10-05T10:50:01.097Z,44.30
2018-10-05T10:52:30.111Z,43.80
2018-10-05T10:54:58.657Z,43.10
2018-10-05T10:57:27.510Z,42.00
2018-10-05T10:59:56.048Z,42.80
2018-10-05T11:02:24.621Z,39.60
2018-10-05T11:04:53.442Z,42.50
2018-10-05T11:07:22.125Z,39.80
2018-10-05T11:09:50.607Z,40.70
2018-10-05T11:12:19.528Z,37.70
2018-10-05T11:14:48.392Z,36.20
2018-10-05T11:17:17.009Z,34.30
2018-10-05T11:19:45.892Z,32.60
2018-10-05T11:22:14.377Z,33.60
2018-10-05T11:24:43.021Z,32.90
2018-10-05T11:27:12.200Z,29.60
2018-10-05T11:29:40.921Z,30.50
2018-10-05T11:32:09.701Z,28.50
2018-10-05T11:34:38.378Z,26.80
2018-10-05T11:37:07.020Z,28.20
2018-10-05T11:39:35.740Z,26.90
2018-10-05T11:42:04.312Z,27.50
2018-10-05T11:44:32.879Z,25.10
2018-10-05T11:47:01.534Z,25.50
2018-10-05T11:49:30.458Z,26.10
2018-10-05T11:51:59.397Z,24.70
2018-10-05T11:54:27.825Z,24.70
2018-10-05T11:56:56.531Z,23.50
2018-10-05T11:59:25.157Z,23.30
2018-10-05T12:01:53.910Z,22.20
2018-10-05T12:04:22.373Z,22.60
2018-10-05T12:06:50.860Z,22.20
2018-10-05T12:09:19.458Z,22.00
2018-10-05T12:11:48.047Z,20.00
2018-10-05T12:14:16.472Z,21.50
2018-10-05T12:16:45.088Z,21.00
2018-10-05T12:19:13.589Z,20.60
2018-10-05T12:21:42.037Z,20.10
2018-10-05T12:24:10.656Z,19.20
2018-10-05T12:26:39.431Z,18.80
2018-10-05T12:29:08.216Z,18.10
2018-10-05T12:31:36.932Z,18.10
2018-10-05T12:34:05.460Z,19.00
2018-10-05T12:36:33.968Z,18.90
2018-10-05T12:39:03.629Z,18.50
2018-10-05T12:41:32.422Z,17.90
2018-10-05T12:44:01.214Z,17.10
2018-10-05T12:46:29.868Z,17.00
2018-10-05T12:48:58.500Z,17.20
2018-10-05T12:51:27.109Z,16.70
2018-10-05T12:53:56.498Z,16.10
2018-10-05T12:56:25.147Z,17.00
2018-10-05T12:58:54.086Z,16.90
2018-10-05T13:01:22.718Z,16.50
2018-10-05T13:03:51.203Z,16.10
2018-10-05T13:06:20.057Z,15.70
2018-10-05T13:08:48.795Z,16.00
2018-10-05T13:11:17.376Z,15.70
2018-10-05T13:13:45.837Z,16.40
2018-10-05T13:16:14.577Z,16.20
2018-10-05T13:18:43.348Z,16.10
2018-10-05T13:21:12.055Z,15.80
2018-10-05T13:23:40.659Z,15.60
2018-10-05T13:26:09.579Z,15.60
2018-10-05T13:28:38.230Z,15.40
2018-10-05T13:31:07.337Z,15.30
2018-10-05T13:33:35.924Z,15.60
2018-10-05T13:36:04.789Z,16.00
2018-10-05T13:38:33.403Z,15.80
2018-10-05T13:41:02.206Z,15.90
2018-10-05T13:43:30.760Z,15.80
2018-10-05T13:45:59.222Z,15.40
2018-10-05T13:48:27.931Z,15.30
2018-10-05T13:50:56.541Z,15.00
2018-10-05T13:53:25.166Z,15.00
2018-10-05T13:55:53.940Z,15.00
2018-10-05T13:58:22.454Z,14.70
2018-10-05T14:00:51.050Z,15.00
2018-10-05T14:10:45.536Z,15.40
2018-10-05T14:13:14.507Z,15.50
2018-10-05T14:15:49.313Z,16.50
2018-10-05T14:18:18.051Z,17.50
2018-10-05T14:20:47.125Z,18.80
2018-10-05T14:23:15.957Z,19.10
2018-10-05T14:25:44.502Z,20.40
